createdAt,value
2022-12-08T00:00:48.102Z,16.83
2022-12-08T00:03:18.816Z,18.77
2022-12-08T00:06:19.659Z,15.15
2022-12-08T00:09:02.036Z,13.43
2022-12-08T00:11:31.859Z,16.27
2022-12-08T00:14:01.822Z,14.25
2022-12-08T00:16:31.733Z,14.50
2022-12-08T00:19:01.599Z,16.38
2022-12-08T00:21:34.449Z,16.48
2022-12-08T00:24:04.300Z,16.30
2022-12-08T00:26:34.259Z,14.25
2022-12-08T00:29:04.090Z,15.30
2022-12-08T00:31:34.217Z,17.33
2022-12-08T00:34:04.496Z,15.43
2022-12-08T00:36:37.433Z,19.48
2022-12-08T00:39:07.288Z,18.65
2022-12-08T00:41:49.679Z,15.23
2022-12-08T00:44:21.615Z,16.55
2022-12-08T00:46:52.057Z,21.00
2022-12-08T00:49:22.420Z,15.85
2022-12-08T00:51:55.033Z,19.70
2022-12-08T00:54:26.338Z,19.15
2022-12-08T00:56:56.475Z,18.67
2022-12-08T00:59:26.338Z,14.63
2022-12-08T01:01:56.187Z,18.50
2022-12-08T01:04:26.093Z,17.63
2022-12-08T01:06:58.545Z,19.35
2022-12-08T01:09:28.414Z,17.63
2022-12-08T01:11:58.316Z,17.75
2022-12-08T01:14:28.321Z,20.85
2022-12-08T01:16:58.262Z,19.60
2022-12-08T01:19:28.271Z,14.15
2022-12-08T01:22:00.708Z,16.05
2022-12-08T01:24:30.605Z,19.27
2022-12-08T01:27:00.504Z,20.05
2022-12-08T01:29:30.845Z,20.20
2022-12-08T01:32:00.714Z,18.75
2022-12-08T01:34:30.576Z,21.80
2022-12-08T01:37:03.022Z,17.60
2022-12-08T01:39:32.866Z,15.30
2022-12-08T01:42:02.711Z,18.70
2022-12-08T01:44:58.387Z,18.50
2022-12-08T01:47:35.849Z,17.38
2022-12-08T01:50:08.126Z,17.48
2022-12-08T01:52:44.530Z,20.30
2022-12-08T01:55:21.126Z,16.58
2022-12-08T01:57:54.113Z,16.05
2022-12-08T02:00:25.577Z,15.35
2022-12-08T02:03:01.380Z,18.48
2022-12-08T02:05:34.614Z,16.40
2022-12-08T02:08:11.361Z,17.42
2022-12-08T02:10:44.106Z,16.15
2022-12-08T02:13:19.237Z,14.60
2022-12-08T02:16:01.536Z,15.75
2022-12-08T02:18:53.753Z,13.23
2022-12-08T02:21:44.044Z,14.40
2022-12-08T02:24:25.837Z,13.70
2022-12-08T02:27:22.586Z,17.13
2022-12-08T02:30:11.206Z,16.35
2022-12-08T02:33:18.644Z,13.95
2022-12-08T02:36:00.919Z,12.75
2022-12-08T02:38:48.590Z,14.13
2022-12-08T02:41:30.731Z,14.07
2022-12-08T02:44:09.648Z,13.45
2022-12-08T02:46:52.702Z,14.82
2022-12-08T02:49:22.552Z,15.32
2022-12-08T02:51:55.025Z,15.10
2022-12-08T02:54:24.858Z,16.20
2022-12-08T02:57:13.426Z,15.57
2022-12-08T03:00:04.089Z,14.15
2022-12-08T03:02:51.224Z,14.50
2022-12-08T03:05:35.868Z,14.43
2022-12-08T03:08:16.454Z,15.32
2022-12-08T03:10:50.933Z,12.60
2022-12-08T03:13:27.334Z,16.35
2022-12-08T03:15:58.841Z,14.63
2022-12-08T03:18:31.909Z,15.85
2022-12-08T03:21:03.046Z,13.77
2022-12-08T03:23:36.714Z,15.80
2022-12-08T03:26:12.025Z,15.18
2022-12-08T03:28:42.637Z,17.42
2022-12-08T03:31:17.442Z,16.13
2022-12-08T03:33:52.889Z,16.52
2022-12-08T03:36:23.070Z,14.00
2022-12-08T03:38:57.119Z,15.45
2022-12-08T03:41:27.070Z,15.30
2022-12-08T03:43:59.852Z,13.93
2022-12-08T03:46:32.173Z,14.07
2022-12-08T03:49:02.029Z,16.13
2022-12-08T03:51:31.889Z,11.60
2022-12-08T03:54:04.351Z,14.32
2022-12-08T03:56:37.333Z,11.30
2022-12-08T03:59:08.212Z,12.32
2022-12-08T04:01:38.331Z,13.80
2022-12-08T04:04:08.719Z,12.05
2022-12-08T04:06:38.637Z,11.18
2022-12-08T04:09:11.081Z,13.88
2022-12-08T04:11:40.950Z,12.32
2022-12-08T04:14:10.878Z,12.02
2022-12-08T04:16:40.867Z,13.13
2022-12-08T04:19:10.871Z,14.57
2022-12-08T04:21:40.783Z,14.15
2022-12-08T04:24:13.481Z,11.13
2022-12-08T04:26:43.430Z,16.50
2022-12-08T04:29:13.329Z,14.38
2022-12-08T04:31:43.296Z,16.52
2022-12-08T04:34:13.245Z,13.27
2022-12-08T04:36:43.114Z,13.68
2022-12-08T04:39:15.589Z,18.00
2022-12-08T04:41:45.446Z,16.98
2022-12-08T04:44:15.363Z,15.38
2022-12-08T04:46:45.310Z,15.50
2022-12-08T04:49:15.186Z,18.92
2022-12-08T04:51:45.078Z,18.17
2022-12-08T04:54:17.511Z,19.90
2022-12-08T04:56:47.448Z,19.80
2022-12-08T04:59:17.300Z,20.88
2022-12-08T05:01:47.397Z,18.02
2022-12-08T05:04:17.358Z,18.45
2022-12-08T05:06:47.211Z,21.35
2022-12-08T05:09:19.697Z,21.98
2022-12-08T05:11:49.639Z,19.00
2022-12-08T05:14:21.420Z,23.63
2022-12-08T05:16:51.381Z,21.30
2022-12-08T05:19:21.727Z,24.10
2022-12-08T05:21:51.594Z,20.90
2022-12-08T05:24:24.028Z,22.92
2022-12-08T05:26:53.874Z,28.63
2022-12-08T05:29:23.823Z,25.10
2022-12-08T05:31:53.785Z,28.08
2022-12-08T05:34:23.695Z,21.10
2022-12-08T05:36:53.603Z,25.50
2022-12-08T05:39:26.044Z,21.58
2022-12-08T05:41:55.942Z,22.77
2022-12-08T05:44:25.839Z,26.65
2022-12-08T05:46:55.798Z,22.80
2022-12-08T05:49:25.632Z,24.63
2022-12-08T05:51:55.510Z,29.83
2022-12-08T05:54:27.982Z,31.58
2022-12-08T05:56:57.836Z,28.27
2022-12-08T05:59:27.810Z,27.05
2022-12-08T06:01:57.829Z,28.90
2022-12-08T06:04:27.907Z,30.23
2022-12-08T06:06:57.726Z,28.23
2022-12-08T06:09:30.235Z,27.88
2022-12-08T06:12:00.130Z,27.85
2022-12-08T06:14:30.037Z,30.42
2022-12-08T06:16:59.938Z,29.40
2022-12-08T06:19:29.845Z,28.63
2022-12-08T06:21:59.735Z,28.02
2022-12-08T06:24:32.247Z,28.83
2022-12-08T06:27:02.090Z,31.83
2022-12-08T06:29:31.898Z,30.08
2022-12-08T06:32:01.749Z,30.27
2022-12-08T06:34:31.709Z,30.05
2022-12-08T06:37:01.551Z,31.95
2022-12-08T06:39:34.037Z,31.83
2022-12-08T06:42:16.706Z,31.30
2022-12-08T06:44:46.630Z,25.60
2022-12-08T06:47:16.739Z,29.95
2022-12-08T06:49:46.564Z,29.30
2022-12-08T06:52:16.459Z,34.50
2022-12-08T06:54:48.874Z,26.80
2022-12-08T06:57:18.724Z,38.80
2022-12-08T06:59:48.654Z,31.17
2022-12-08T07:02:19.037Z,28.77
2022-12-08T07:04:48.883Z,30.17
2022-12-08T07:07:18.737Z,37.95
2022-12-08T07:09:51.389Z,31.48
2022-12-08T07:12:21.234Z,32.70
2022-12-08T07:14:51.086Z,31.25
2022-12-08T07:17:20.954Z,32.88
2022-12-08T07:19:50.942Z,36.75
2022-12-08T07:22:20.807Z,30.42
2022-12-08T07:24:53.249Z,35.90
2022-12-08T07:27:23.092Z,34.45
2022-12-08T07:29:52.929Z,33.40
2022-12-08T07:32:22.772Z,35.47
2022-12-08T07:34:52.645Z,33.72
2022-12-08T07:37:22.458Z,31.70
2022-12-08T07:39:54.891Z,34.50
2022-12-08T07:42:24.730Z,31.90
2022-12-08T07:44:54.605Z,36.60
2022-12-08T07:47:24.498Z,33.13
2022-12-08T07:49:54.452Z,33.85
2022-12-08T07:52:24.310Z,34.17
2022-12-08T07:54:56.739Z,32.30
2022-12-08T07:57:26.597Z,32.53
2022-12-08T07:59:56.426Z,32.30
2022-12-08T08:02:26.600Z,30.05
2022-12-08T08:04:56.723Z,29.40
2022-12-08T08:07:26.940Z,35.22
2022-12-08T08:09:59.387Z,29.33
2022-12-08T08:12:32.146Z,33.30
2022-12-08T08:15:03.875Z,30.73
2022-12-08T08:17:33.938Z,27.95
2022-12-08T08:20:04.348Z,28.98
2022-12-08T08:22:34.451Z,30.40
2022-12-08T08:25:08.384Z,24.50
2022-12-08T08:27:38.311Z,24.47
2022-12-08T08:30:16.615Z,29.63
2022-12-08T08:32:50.180Z,28.42
2022-12-08T08:35:20.423Z,25.50
2022-12-08T08:37:50.618Z,26.98
2022-12-08T08:40:23.119Z,28.00
2022-12-08T08:42:53.082Z,28.70
2022-12-08T08:45:22.951Z,30.30
2022-12-08T08:47:52.829Z,27.05
2022-12-08T08:50:22.776Z,27.27
2022-12-08T08:52:52.732Z,29.90
2022-12-08T08:55:25.331Z,28.98
2022-12-08T08:57:55.231Z,29.73
2022-12-08T09:00:25.495Z,29.58
2022-12-08T09:02:55.348Z,30.95
2022-12-08T09:05:25.216Z,32.58
2022-12-08T09:07:55.161Z,32.97
2022-12-08T09:10:27.701Z,30.65
2022-12-08T09:12:57.588Z,33.17
2022-12-08T09:15:27.988Z,31.90
2022-12-08T09:17:58.166Z,32.95
2022-12-08T09:20:28.262Z,33.67
2022-12-08T09:22:58.351Z,37.22
2022-12-08T09:25:31.532Z,39.72
2022-12-08T09:28:01.410Z,34.22
2022-12-08T09:30:31.511Z,33.95
2022-12-08T09:33:01.535Z,33.17
2022-12-08T09:35:31.838Z,27.92
2022-12-08T09:38:01.763Z,30.23
2022-12-08T09:40:42.276Z,35.00
2022-12-08T09:43:24.606Z,32.42
2022-12-08T09:45:55.303Z,29.83
2022-12-08T09:48:33.746Z,32.58
2022-12-08T09:51:04.725Z,34.42
2022-12-08T09:53:40.751Z,31.73
2022-12-08T09:56:22.566Z,31.17
2022-12-08T09:58:56.722Z,33.92
2022-12-08T10:01:31.379Z,35.70
2022-12-08T10:06:35.110Z,27.02
2022-12-08T10:09:25.245Z,33.42
2022-12-08T10:12:03.776Z,37.92
2022-12-08T10:14:42.064Z,34.28
2022-12-08T10:17:21.502Z,32.35
2022-12-08T10:19:52.404Z,29.48
2022-12-08T10:22:26.447Z,32.22
2022-12-08T10:25:04.187Z,30.65
2022-12-08T10:27:38.845Z,31.55
2022-12-08T10:30:15.554Z,30.60
2022-12-08T10:32:49.428Z,34.10
2022-12-08T10:35:22.509Z,29.03
2022-12-08T10:37:59.896Z,35.67
2022-12-08T10:40:32.296Z,31.83
2022-12-08T10:43:07.069Z,33.08
2022-12-08T10:48:20.358Z,30.70
2022-12-08T10:50:56.852Z,29.05
2022-12-08T10:53:29.221Z,29.75
2022-12-08T10:56:10.900Z,31.40
2022-12-08T10:58:45.645Z,32.08
2022-12-08T11:01:21.071Z,31.42
2022-12-08T11:03:53.900Z,27.33
2022-12-08T11:06:29.004Z,28.15
2022-12-08T11:09:03.078Z,30.70
2022-12-08T11:11:43.227Z,33.40
2022-12-08T11:14:22.456Z,27.85
2022-12-08T11:16:53.273Z,31.73
2022-12-08T11:19:25.178Z,25.77
2022-12-08T11:21:55.026Z,28.50
2022-12-08T11:24:30.225Z,25.48
2022-12-08T11:27:06.459Z,23.73
2022-12-08T11:29:39.018Z,26.25
2022-12-08T11:32:15.390Z,26.27
2022-12-08T11:34:49.335Z,30.17
2022-12-08T11:37:28.644Z,27.45
2022-12-08T11:40:08.115Z,23.67
2022-12-08T11:42:50.793Z,27.58
2022-12-08T11:45:31.089Z,28.75
2022-12-08T11:48:10.058Z,25.10
2022-12-08T11:50:48.377Z,26.50
2022-12-08T11:53:29.489Z,27.50
2022-12-08T11:56:03.938Z,23.73
2022-12-08T11:58:42.403Z,27.15
2022-12-08T12:01:22.929Z,25.55
2022-12-08T12:04:02.861Z,26.65
2022-12-08T12:07:14.068Z,29.83
2022-12-08T12:09:59.022Z,27.33
2022-12-08T12:12:44.822Z,31.23
2022-12-08T12:15:54.021Z,29.23
2022-12-08T12:18:35.187Z,33.22
2022-12-08T12:21:12.720Z,30.42
2022-12-08T12:23:47.824Z,31.48
2022-12-08T12:26:23.520Z,32.83
2022-12-08T12:28:58.249Z,29.35
2022-12-08T12:34:11.357Z,32.45
2022-12-08T12:36:53.713Z,30.08
2022-12-08T12:39:28.525Z,26.75
2022-12-08T12:44:43.635Z,24.30
2022-12-08T12:47:56.278Z,20.88
2022-12-08T12:50:46.653Z,23.60
2022-12-08T12:53:51.046Z,20.63
2022-12-08T12:56:53.471Z,21.05
2022-12-08T12:59:48.984Z,21.92
2022-12-08T13:02:26.807Z,21.10
2022-12-08T13:05:04.853Z,21.08
2022-12-08T13:07:38.853Z,24.30
2022-12-08T13:10:21.014Z,23.25
2022-12-08T13:13:18.018Z,22.52
2022-12-08T13:15:54.591Z,23.42
2022-12-08T13:18:28.916Z,23.13
2022-12-08T13:21:08.227Z,24.27
2022-12-08T13:23:50.152Z,25.75
2022-12-08T13:26:24.847Z,25.67
2022-12-08T13:31:51.230Z,18.92
2022-12-08T13:34:28.290Z,28.52
2022-12-08T13:37:22.619Z,28.25
2022-12-08T13:39:57.546Z,22.65
2022-12-08T13:42:36.207Z,24.08
2022-12-08T13:45:27.957Z,23.00
2022-12-08T13:48:44.651Z,25.60
2022-12-08T13:57:08.384Z,26.52
2022-12-08T13:59:47.446Z,28.00
2022-12-08T14:02:23.396Z,26.20
2022-12-08T14:07:44.150Z,26.95
2022-12-08T14:10:22.925Z,29.35
2022-12-08T14:13:00.188Z,27.17
2022-12-08T14:15:35.683Z,26.20
2022-12-08T14:18:09.181Z,25.42
2022-12-08T14:21:12.125Z,28.10
2022-12-08T14:23:29.145Z,27.27
2022-12-08T14:26:01.854Z,32.92
2022-12-08T14:28:31.869Z,31.83
2022-12-08T14:31:02.726Z,30.58
2022-12-08T14:33:34.763Z,27.88
2022-12-08T14:36:04.634Z,33.90
2022-12-08T14:38:34.716Z,31.88
2022-12-08T14:41:10.101Z,26.98
2022-12-08T14:43:41.000Z,26.67
2022-12-08T14:46:23.847Z,31.90
2022-12-08T14:48:53.780Z,27.23
2022-12-08T14:51:31.361Z,27.88
2022-12-08T14:54:04.034Z,22.60
2022-12-08T14:56:42.277Z,23.48
2022-12-08T14:59:18.802Z,25.52
2022-12-08T15:01:51.118Z,14.73
2022-12-08T15:04:27.939Z,17.20
2022-12-08T15:07:05.686Z,17.10
2022-12-08T15:09:41.044Z,16.25
2022-12-08T15:12:27.399Z,18.88
2022-12-08T15:15:00.112Z,16.95
2022-12-08T15:17:36.071Z,19.80
2022-12-08T15:20:09.066Z,20.75
2022-12-08T15:22:39.025Z,21.73
2022-12-08T15:25:14.537Z,19.95
2022-12-08T15:27:50.708Z,22.42
2022-12-08T15:30:21.820Z,25.10
2022-12-08T15:32:52.765Z,25.35
2022-12-08T15:35:22.889Z,27.23
2022-12-08T15:37:52.814Z,26.80
2022-12-08T15:40:27.106Z,23.20
2022-12-08T15:42:59.582Z,29.95
2022-12-08T15:45:33.779Z,28.58
2022-12-08T15:48:04.095Z,29.25
2022-12-08T15:50:33.962Z,25.40
2022-12-08T15:53:04.540Z,30.30
2022-12-08T15:55:38.857Z,25.60
2022-12-08T16:01:08.615Z,26.65
2022-12-08T16:07:12.924Z,25.88
2022-12-08T16:09:32.495Z,27.48
2022-12-08T16:12:16.064Z,25.92
2022-12-08T16:17:39.945Z,24.05
2022-12-08T16:20:15.453Z,22.80
2022-12-08T16:22:59.709Z,26.77
2022-12-08T16:26:00.098Z,29.35
2022-12-08T16:28:52.821Z,25.38
2022-12-08T16:31:22.808Z,24.17
2022-12-08T16:33:53.138Z,25.88
2022-12-08T16:36:22.979Z,23.35
2022-12-08T16:38:52.840Z,26.20
2022-12-08T16:41:37.604Z,22.77
2022-12-08T16:44:09.038Z,25.58
2022-12-08T16:46:41.500Z,27.63
2022-12-08T16:49:12.835Z,46.00
2022-12-08T16:51:46.057Z,24.80
2022-12-08T16:54:15.938Z,26.80
2022-12-08T16:56:46.019Z,22.02
2022-12-08T16:59:15.849Z,26.05
2022-12-08T17:01:48.287Z,24.75
2022-12-08T17:04:33.700Z,61.08
2022-12-08T17:07:03.718Z,44.50
2022-12-08T17:09:34.736Z,46.00
2022-12-08T17:12:04.623Z,46.75
2022-12-08T17:14:37.266Z,38.25
2022-12-08T17:17:09.714Z,30.85
2022-12-08T17:19:40.027Z,29.73
2022-12-08T17:22:09.872Z,42.85
2022-12-08T17:24:40.889Z,42.28
2022-12-08T17:27:11.394Z,40.58
2022-12-08T17:29:41.234Z,41.88
2022-12-08T17:32:13.773Z,37.25
2022-12-08T17:34:43.674Z,43.78
2022-12-08T17:37:13.514Z,40.83
2022-12-08T17:39:43.431Z,32.47
2022-12-08T17:42:13.382Z,39.42
2022-12-08T17:44:43.220Z,36.92
2022-12-08T17:47:15.682Z,37.75
2022-12-08T17:49:45.532Z,34.85
2022-12-08T17:52:15.449Z,34.72
2022-12-08T17:54:45.313Z,29.55
2022-12-08T17:57:15.175Z,29.75
2022-12-08T17:59:45.005Z,33.10
2022-12-08T18:02:17.500Z,30.65
2022-12-08T18:04:47.400Z,35.78
2022-12-08T18:07:17.306Z,37.40
2022-12-08T18:09:47.474Z,31.58
2022-12-08T18:12:23.224Z,32.13
2022-12-08T18:14:53.848Z,32.65
2022-12-08T18:17:26.313Z,29.80
2022-12-08T18:19:56.199Z,31.52
2022-12-08T18:22:26.802Z,33.97
2022-12-08T18:24:57.146Z,34.83
2022-12-08T18:27:27.120Z,37.83
2022-12-08T18:29:56.994Z,37.30
2022-12-08T18:32:29.416Z,45.20
2022-12-08T18:34:59.259Z,43.42
2022-12-08T18:37:29.172Z,37.28
2022-12-08T18:39:59.015Z,34.95
2022-12-08T18:42:29.497Z,37.90
2022-12-08T18:45:04.202Z,36.45
2022-12-08T18:50:11.070Z,40.85
2022-12-08T18:52:40.976Z,42.13
2022-12-08T18:55:12.273Z,41.17
2022-12-08T18:57:44.278Z,41.75
2022-12-08T19:00:17.783Z,42.88
2022-12-08T19:02:50.325Z,44.88
2022-12-08T19:05:20.438Z,47.15
2022-12-08T19:07:52.204Z,39.85
2022-12-08T19:10:22.116Z,46.40
2022-12-08T19:12:53.260Z,41.88
2022-12-08T19:15:24.495Z,42.75
2022-12-08T19:17:56.973Z,46.63
2022-12-08T19:20:27.534Z,46.03
2022-12-08T19:22:57.864Z,45.15
2022-12-08T19:25:27.697Z,44.10
2022-12-08T19:27:57.565Z,51.40
2022-12-08T19:30:27.611Z,40.17
2022-12-08T19:33:01.008Z,40.25
2022-12-08T19:35:30.905Z,41.38
2022-12-08T19:38:00.850Z,44.92
2022-12-08T19:40:43.200Z,41.55
2022-12-08T19:43:47.344Z,43.22
2022-12-08T19:46:17.521Z,41.80
2022-12-08T19:48:50.047Z,41.58
2022-12-08T19:51:19.880Z,37.38
2022-12-08T19:53:49.733Z,41.33
2022-12-08T19:56:19.606Z,39.80
2022-12-08T19:58:49.467Z,40.10
2022-12-08T20:01:19.590Z,40.60
2022-12-08T20:03:52.103Z,38.00
2022-12-08T20:06:23.237Z,37.65
2022-12-08T20:08:54.116Z,38.03
2022-12-08T20:11:24.453Z,36.17
2022-12-08T20:13:54.320Z,33.78
2022-12-08T20:16:24.348Z,33.15
2022-12-08T20:18:56.882Z,33.97
2022-12-08T20:21:26.818Z,32.65
2022-12-08T20:23:56.898Z,30.55
2022-12-08T20:26:27.080Z,33.40
2022-12-08T20:28:56.963Z,34.92
2022-12-08T20:31:30.207Z,32.35
2022-12-08T20:34:02.770Z,33.55
2022-12-08T20:36:33.210Z,33.97
2022-12-08T20:39:03.207Z,40.35
2022-12-08T20:41:38.797Z,31.10
2022-12-08T20:44:09.398Z,33.20
2022-12-08T20:46:39.383Z,28.23
2022-12-08T20:49:12.242Z,31.48
2022-12-08T20:51:42.180Z,27.63
2022-12-08T20:54:13.569Z,29.20
2022-12-08T20:56:48.341Z,30.05
2022-12-08T20:59:20.503Z,33.53
2022-12-08T21:01:50.533Z,32.03
2022-12-08T21:04:23.712Z,39.70
2022-12-08T21:06:53.933Z,52.78
2022-12-08T21:09:23.915Z,37.53
2022-12-08T21:11:54.339Z,48.28
2022-12-08T21:14:24.399Z,42.05
2022-12-08T21:16:54.695Z,71.18
2022-12-08T21:19:27.453Z,48.50
2022-12-08T21:21:57.705Z,35.60
2022-12-08T21:24:33.552Z,38.72
2022-12-08T21:27:04.538Z,47.78
2022-12-08T21:29:34.617Z,44.63
2022-12-08T21:32:05.162Z,39.10
2022-12-08T21:34:37.988Z,43.03
2022-12-08T21:37:08.077Z,47.95
2022-12-08T21:39:38.267Z,49.88
2022-12-08T21:42:22.818Z,50.58
2022-12-08T21:44:53.410Z,47.05
2022-12-08T21:47:23.561Z,39.80
2022-12-08T21:49:57.048Z,34.13
2022-12-08T21:52:27.258Z,38.90
2022-12-08T21:54:57.734Z,34.78
2022-12-08T21:57:27.873Z,37.22
2022-12-08T21:59:57.976Z,35.00
2022-12-08T22:02:28.147Z,32.60
2022-12-08T22:05:00.928Z,34.03
2022-12-08T22:07:31.002Z,32.47
2022-12-08T22:10:01.363Z,34.97
2022-12-08T22:12:31.438Z,32.08
2022-12-08T22:15:03.212Z,31.23
2022-12-08T22:17:33.254Z,31.40
2022-12-08T22:20:06.723Z,32.15
2022-12-08T22:22:37.775Z,29.83
2022-12-08T22:25:11.090Z,29.65
2022-12-08T22:27:41.590Z,32.25
2022-12-08T22:30:13.421Z,30.23
2022-12-08T22:32:43.370Z,31.65
2022-12-08T22:35:16.014Z,30.02
2022-12-08T22:37:45.895Z,29.15
2022-12-08T22:40:16.296Z,30.02
2022-12-08T22:42:46.449Z,30.00
2022-12-08T22:45:16.634Z,29.42
2022-12-08T22:47:46.637Z,31.90
2022-12-08T22:50:19.301Z,35.58
2022-12-08T22:52:51.460Z,33.28
2022-12-08T22:55:21.325Z,35.53
2022-12-08T22:57:51.221Z,33.97
2022-12-08T23:00:22.885Z,36.90
2022-12-08T23:02:52.789Z,37.25
2022-12-08T23:05:25.465Z,32.83
2022-12-08T23:07:56.174Z,33.97
2022-12-08T23:10:26.212Z,34.67
2022-12-08T23:13:00.802Z,33.67
2022-12-08T23:15:33.752Z,36.42
2022-12-08T23:18:03.832Z,37.00
2022-12-08T23:20:37.401Z,36.30
2022-12-08T23:23:07.261Z,32.83
2022-12-08T23:25:37.409Z,32.33
2022-12-08T23:28:07.887Z,28.15
2022-12-08T23:30:37.997Z,30.88
2022-12-08T23:33:08.396Z,32.00
2022-12-08T23:35:41.200Z,34.90
2022-12-08T23:38:11.304Z,33.85
2022-12-08T23:40:41.218Z,30.63
2022-12-08T23:43:11.136Z,31.88
2022-12-08T23:45:41.177Z,29.05
2022-12-08T23:48:11.226Z,31.67
2022-12-08T23:50:43.889Z,38.50
2022-12-08T23:53:13.811Z,38.25
2022-12-08T23:55:43.675Z,35.28
2022-12-08T23:58:14.312Z,34.28
